sensor_id;sensor_type;location;lat;lon;timestamp;pressure;altitude;pressure_sealevel;temperature;humidity
61436;BME280;47304;47.456;19.160;2022-12-05T00:01:25;100925.18;;;5.21;72.72
61436;BME280;47304;47.456;19.160;2022-12-05T00:03:56;100927.25;;;5.21;72.72
61436;BME280;47304;47.456;19.160;2022-12-05T00:06:25;100925.67;;;5.20;72.46
61436;BME280;47304;47.456;19.160;2022-12-05T00:08:54;100925.77;;;5.17;72.51
61436;BME280;47304;47.456;19.160;2022-12-05T00:11:25;100925.16;;;5.14;72.55
61436;BME280;47304;47.456;19.160;2022-12-05T00:13:54;100928.13;;;5.14;72.68
61436;BME280;47304;47.456;19.160;2022-12-05T00:16:23;100926.51;;;5.12;72.80
61436;BME280;47304;47.456;19.160;2022-12-05T00:18:52;100924.42;;;5.13;72.77
61436;BME280;47304;47.456;19.160;2022-12-05T00:21:22;100924.40;;;5.12;72.72
61436;BME280;47304;47.456;19.160;2022-12-05T00:23:51;100922.64;;;5.11;72.75
61436;BME280;47304;47.456;19.160;2022-12-05T00:26:20;100919.56;;;5.13;72.79
61436;BME280;47304;47.456;19.160;2022-12-05T00:28:48;100916.30;;;5.14;72.70
61436;BME280;47304;47.456;19.160;2022-12-05T00:31:19;100922.39;;;5.14;72.63
61436;BME280;47304;47.456;19.160;2022-12-05T00:33:48;100920.45;;;5.13;72.47
61436;BME280;47304;47.456;19.160;2022-12-05T00:36:22;100918.02;;;5.13;72.51
61436;BME280;47304;47.456;19.160;2022-12-05T00:38:51;100914.72;;;5.13;72.49
61436;BME280;47304;47.456;19.160;2022-12-05T00:41:22;100915.42;;;5.13;72.55
61436;BME280;47304;47.456;19.160;2022-12-05T00:43:50;100916.41;;;5.12;72.55
61436;BME280;47304;47.456;19.160;2022-12-05T00:46:21;100917.60;;;5.11;72.65
61436;BME280;47304;47.456;19.160;2022-12-05T00:48:51;100912.90;;;5.11;72.69
61436;BME280;47304;47.456;19.160;2022-12-05T00:51:23;100912.77;;;5.12;72.88
61436;BME280;47304;47.456;19.160;2022-12-05T00:53:50;100909.46;;;5.12;73.04
61436;BME280;47304;47.456;19.160;2022-12-05T00:56:22;100911.25;;;5.13;73.01
61436;BME280;47304;47.456;19.160;2022-12-05T00:58:53;100911.50;;;5.16;73.18
61436;BME280;47304;47.456;19.160;2022-12-05T01:01:26;100910.77;;;5.16;73.10
61436;BME280;47304;47.456;19.160;2022-12-05T01:03:56;100912.85;;;5.15;73.08
61436;BME280;47304;47.456;19.160;2022-12-05T01:06:26;100911.63;;;5.14;73.17
61436;BME280;47304;47.456;19.160;2022-12-05T01:08:55;100906.59;;;5.14;73.18
61436;BME280;47304;47.456;19.160;2022-12-05T01:11:24;100911.07;;;5.13;73.20
61436;BME280;47304;47.456;19.160;2022-12-05T01:13:52;100908.56;;;5.11;72.97
61436;BME280;47304;47.456;19.160;2022-12-05T01:16:26;100909.53;;;5.09;73.12
61436;BME280;47304;47.456;19.160;2022-12-05T01:18:55;100909.14;;;5.07;73.17
61436;BME280;47304;47.456;19.160;2022-12-05T01:21:23;100905.75;;;5.04;73.34
61436;BME280;47304;47.456;19.160;2022-12-05T01:23:51;100904.14;;;5.03;73.57
61436;BME280;47304;47.456;19.160;2022-12-05T01:26:20;100898.82;;;4.98;73.73
61436;BME280;47304;47.456;19.160;2022-12-05T01:28:49;100897.47;;;4.94;73.89
61436;BME280;47304;47.456;19.160;2022-12-05T01:33:48;100887.80;;;4.91;74.42
61436;BME280;47304;47.456;19.160;2022-12-05T01:36:16;100887.95;;;4.90;74.66
61436;BME280;47304;47.456;19.160;2022-12-05T01:38:44;100889.83;;;4.89;74.81
61436;BME280;47304;47.456;19.160;2022-12-05T01:41:19;100888.80;;;4.89;74.89
61436;BME280;47304;47.456;19.160;2022-12-05T01:44:57;100883.41;;;4.89;74.99
61436;BME280;47304;47.456;19.160;2022-12-05T01:46:55;100882.16;;;4.88;75.06
61436;BME280;47304;47.456;19.160;2022-12-05T01:51:57;100876.37;;;4.86;75.26
61436;BME280;47304;47.456;19.160;2022-12-05T01:54:25;100879.14;;;4.86;75.38
61436;BME280;47304;47.456;19.160;2022-12-05T01:56:58;100881.33;;;4.83;75.39
61436;BME280;47304;47.456;19.160;2022-12-05T01:59:29;100884.40;;;4.82;75.48
61436;BME280;47304;47.456;19.160;2022-12-05T02:01:58;100891.11;;;4.79;75.69
61436;BME280;47304;47.456;19.160;2022-12-05T02:04:26;100891.51;;;4.76;76.01
61436;BME280;47304;47.456;19.160;2022-12-05T02:06:54;100892.80;;;4.73;76.03
61436;BME280;47304;47.456;19.160;2022-12-05T02:09:22;100896.38;;;4.71;76.25
61436;BME280;47304;47.456;19.160;2022-12-05T02:11:56;100894.30;;;4.71;76.33
61436;BME280;47304;47.456;19.160;2022-12-05T02:15:27;100889.60;;;4.70;76.41
61436;BME280;47304;47.456;19.160;2022-12-05T02:17:53;100891.98;;;4.69;76.57
61436;BME280;47304;47.456;19.160;2022-12-05T02:20:38;100887.98;;;4.68;76.65
61436;BME280;47304;47.456;19.160;2022-12-05T02:27:03;100884.09;;;4.72;76.85
61436;BME280;47304;47.456;19.160;2022-12-05T02:31:47;100896.36;;;4.70;76.85
61436;BME280;47304;47.456;19.160;2022-12-05T02:34:40;100904.81;;;4.68;76.91
61436;BME280;47304;47.456;19.160;2022-12-05T02:37:23;100904.65;;;4.68;76.90
61436;BME280;47304;47.456;19.160;2022-12-05T02:40:13;100900.81;;;4.68;76.90
61436;BME280;47304;47.456;19.160;2022-12-05T02:43:11;100909.16;;;4.68;76.90
61436;BME280;47304;47.456;19.160;2022-12-05T02:45:37;100905.48;;;4.67;76.89
61436;BME280;47304;47.456;19.160;2022-12-05T02:48:07;100907.38;;;4.67;76.92
61436;BME280;47304;47.456;19.160;2022-12-05T02:50:37;100897.48;;;4.67;76.90
61436;BME280;47304;47.456;19.160;2022-12-05T02:53:10;100896.47;;;4.67;76.90
61436;BME280;47304;47.456;19.160;2022-12-05T02:55:40;100894.02;;;4.67;76.88
61436;BME280;47304;47.456;19.160;2022-12-05T02:58:13;100897.52;;;4.68;76.89
61436;BME280;47304;47.456;19.160;2022-12-05T03:00:43;100899.41;;;4.68;76.91
61436;BME280;47304;47.456;19.160;2022-12-05T03:03:17;100906.90;;;4.68;76.99
61436;BME280;47304;47.456;19.160;2022-12-05T03:05:53;100911.05;;;4.68;77.00
61436;BME280;47304;47.456;19.160;2022-12-05T03:08:28;100905.16;;;4.68;77.03
61436;BME280;47304;47.456;19.160;2022-12-05T03:10:58;100914.70;;;4.68;77.07
61436;BME280;47304;47.456;19.160;2022-12-05T03:13:31;100916.44;;;4.68;77.04
61436;BME280;47304;47.456;19.160;2022-12-05T03:16:06;100917.29;;;4.68;77.11
61436;BME280;47304;47.456;19.160;2022-12-05T03:18:39;100913.94;;;4.66;77.13
61436;BME280;47304;47.456;19.160;2022-12-05T03:21:21;100918.30;;;4.67;77.21
61436;BME280;47304;47.456;19.160;2022-12-05T03:23:59;100916.20;;;4.66;77.18
61436;BME280;47304;47.456;19.160;2022-12-05T03:29:25;100912.64;;;4.69;77.23
61436;BME280;47304;47.456;19.160;2022-12-05T03:35:13;100906.43;;;4.70;77.30
61436;BME280;47304;47.456;19.160;2022-12-05T03:40:48;100908.80;;;4.74;77.31
61436;BME280;47304;47.456;19.160;2022-12-05T03:46:28;100915.98;;;4.76;77.26
61436;BME280;47304;47.456;19.160;2022-12-05T03:51:36;100919.45;;;4.76;77.33
61436;BME280;47304;47.456;19.160;2022-12-05T03:54:11;100918.05;;;4.75;77.37
61436;BME280;47304;47.456;19.160;2022-12-05T03:56:57;100913.48;;;4.74;77.52
61436;BME280;47304;47.456;19.160;2022-12-05T03:59:40;100912.23;;;4.73;77.52
61436;BME280;47304;47.456;19.160;2022-12-05T04:02:14;100907.52;;;4.71;77.61
61436;BME280;47304;47.456;19.160;2022-12-05T04:04:50;100899.74;;;4.67;77.75
61436;BME280;47304;47.456;19.160;2022-12-05T04:07:20;100906.59;;;4.64;77.90
61436;BME280;47304;47.456;19.160;2022-12-05T04:09:56;100910.36;;;4.63;78.02
61436;BME280;47304;47.456;19.160;2022-12-05T04:12:29;100910.12;;;4.60;78.04
61436;BME280;47304;47.456;19.160;2022-12-05T04:15:02;100906.80;;;4.60;78.17
61436;BME280;47304;47.456;19.160;2022-12-05T04:20:09;100908.73;;;4.56;78.41
61436;BME280;47304;47.456;19.160;2022-12-05T04:22:38;100910.98;;;4.56;78.51
61436;BME280;47304;47.456;19.160;2022-12-05T04:25:09;100908.77;;;4.57;78.53
61436;BME280;47304;47.456;19.160;2022-12-05T04:30:07;100912.14;;;4.59;78.50
61436;BME280;47304;47.456;19.160;2022-12-05T04:33:01;100908.54;;;4.60;78.59
61436;BME280;47304;47.456;19.160;2022-12-05T04:35:35;100912.54;;;4.60;78.53
61436;BME280;47304;47.456;19.160;2022-12-05T04:38:09;100912.71;;;4.60;78.52
61436;BME280;47304;47.456;19.160;2022-12-05T04:40:43;100911.46;;;4.59;78.64
61436;BME280;47304;47.456;19.160;2022-12-05T04:43:14;100914.23;;;4.59;78.73
61436;BME280;47304;47.456;19.160;2022-12-05T04:45:43;100914.55;;;4.58;78.80
61436;BME280;47304;47.456;19.160;2022-12-05T04:48:14;100910.77;;;4.59;78.87
61436;BME280;47304;47.456;19.160;2022-12-05T04:50:45;100914.82;;;4.61;78.87
61436;BME280;47304;47.456;19.160;2022-12-05T04:53:15;100916.03;;;4.61;78.89
61436;BME280;47304;47.456;19.160;2022-12-05T04:55:46;100910.66;;;4.61;78.85
61436;BME280;47304;47.456;19.160;2022-12-05T04:58:18;100899.66;;;4.59;78.86
61436;BME280;47304;47.456;19.160;2022-12-05T05:03:39;100889.17;;;4.57;79.09
61436;BME280;47304;47.456;19.160;2022-12-05T05:06:10;100880.27;;;4.56;79.08
61436;BME280;47304;47.456;19.160;2022-12-05T05:08:47;100880.52;;;4.57;79.19
61436;BME280;47304;47.456;19.160;2022-12-05T05:11:18;100889.20;;;4.58;79.18
61436;BME280;47304;47.456;19.160;2022-12-05T05:13:46;100890.77;;;4.58;79.25
61436;BME280;47304;47.456;19.160;2022-12-05T05:16:20;100890.08;;;4.58;79.28
61436;BME280;47304;47.456;19.160;2022-12-05T05:18:49;100890.85;;;4.55;79.31
61436;BME280;47304;47.456;19.160;2022-12-05T05:21:23;100896.48;;;4.52;79.45
61436;BME280;47304;47.456;19.160;2022-12-05T05:23:52;100896.23;;;4.50;79.50
61436;BME280;47304;47.456;19.160;2022-12-05T05:26:20;100900.49;;;4.47;79.67
61436;BME280;47304;47.456;19.160;2022-12-05T05:28:49;100901.46;;;4.45;79.84
61436;BME280;47304;47.456;19.160;2022-12-05T05:31:18;100901.27;;;4.45;79.89
61436;BME280;47304;47.456;19.160;2022-12-05T05:33:52;100899.37;;;4.45;79.86
61436;BME280;47304;47.456;19.160;2022-12-05T05:36:22;100904.14;;;4.47;79.90
61436;BME280;47304;47.456;19.160;2022-12-05T05:38:53;100910.58;;;4.48;79.90
61436;BME280;47304;47.456;19.160;2022-12-05T05:41:27;100916.14;;;4.49;79.91
61436;BME280;47304;47.456;19.160;2022-12-05T05:43:55;100916.92;;;4.51;79.87
61436;BME280;47304;47.456;19.160;2022-12-05T05:46:25;100921.66;;;4.53;79.90
61436;BME280;47304;47.456;19.160;2022-12-05T05:48:53;100920.45;;;4.52;79.87
61436;BME280;47304;47.456;19.160;2022-12-05T05:51:21;100915.92;;;4.52;79.96
61436;BME280;47304;47.456;19.160;2022-12-05T05:53:50;100919.58;;;4.52;80.00
61436;BME280;47304;47.456;19.160;2022-12-05T05:56:18;100916.65;;;4.53;79.95
61436;BME280;47304;47.456;19.160;2022-12-05T05:58:55;100919.67;;;4.56;79.94
61436;BME280;47304;47.456;19.160;2022-12-05T06:01:22;100922.50;;;4.57;79.97
61436;BME280;47304;47.456;19.160;2022-12-05T06:03:50;100922.86;;;4.58;79.95
61436;BME280;47304;47.456;19.160;2022-12-05T06:06:18;100917.65;;;4.58;79.93
61436;BME280;47304;47.456;19.160;2022-12-05T06:08:46;100920.23;;;4.57;80.04
61436;BME280;47304;47.456;19.160;2022-12-05T06:11:17;100926.11;;;4.56;80.00
61436;BME280;47304;47.456;19.160;2022-12-05T06:13:57;100930.41;;;4.55;79.98
61436;BME280;47304;47.456;19.160;2022-12-05T06:16:25;100929.52;;;4.54;80.18
61436;BME280;47304;47.456;19.160;2022-12-05T06:18:53;100929.37;;;4.55;80.22
61436;BME280;47304;47.456;19.160;2022-12-05T06:21:21;100933.08;;;4.56;80.08
61436;BME280;47304;47.456;19.160;2022-12-05T06:23:49;100940.08;;;4.59;80.04
61436;BME280;47304;47.456;19.160;2022-12-05T06:26:19;100939.61;;;4.60;80.14
61436;BME280;47304;47.456;19.160;2022-12-05T06:28:47;100942.64;;;4.63;80.03
61436;BME280;47304;47.456;19.160;2022-12-05T06:31:21;100950.15;;;4.64;80.04
61436;BME280;47304;47.456;19.160;2022-12-05T06:33:49;100944.88;;;4.67;79.96
61436;BME280;47304;47.456;19.160;2022-12-05T06:36:19;100943.77;;;4.71;79.91
61436;BME280;47304;47.456;19.160;2022-12-05T06:38:47;100943.17;;;4.74;79.90
61436;BME280;47304;47.456;19.160;2022-12-05T06:41:17;100946.40;;;4.77;79.72
61436;BME280;47304;47.456;19.160;2022-12-05T06:43:46;100944.94;;;4.80;79.76
61436;BME280;47304;47.456;19.160;2022-12-05T06:46:14;100941.19;;;4.82;79.63
61436;BME280;47304;47.456;19.160;2022-12-05T06:48:42;100944.91;;;4.84;79.52
61436;BME280;47304;47.456;19.160;2022-12-05T06:51:13;100951.95;;;4.88;79.52
61436;BME280;47304;47.456;19.160;2022-12-05T06:53:42;100952.54;;;4.90;79.48
61436;BME280;47304;47.456;19.160;2022-12-05T06:56:13;100951.19;;;4.91;79.45
61436;BME280;47304;47.456;19.160;2022-12-05T06:58:42;100949.69;;;4.93;79.41
61436;BME280;47304;47.456;19.160;2022-12-05T07:01:16;100951.30;;;4.95;79.30
61436;BME280;47304;47.456;19.160;2022-12-05T07:03:44;100949.27;;;4.97;79.25
61436;BME280;47304;47.456;19.160;2022-12-05T07:06:11;100947.18;;;4.96;79.15
61436;BME280;47304;47.456;19.160;2022-12-05T07:08:39;100952.03;;;4.95;79.21
61436;BME280;47304;47.456;19.160;2022-12-05T07:11:07;100958.49;;;4.97;79.34
61436;BME280;47304;47.456;19.160;2022-12-05T07:13:35;100967.98;;;5.00;79.27
61436;BME280;47304;47.456;19.160;2022-12-05T07:16:03;100972.93;;;5.03;79.24
61436;BME280;47304;47.456;19.160;2022-12-05T07:18:31;100971.31;;;5.07;79.15
61436;BME280;47304;47.456;19.160;2022-12-05T07:21:04;100963.89;;;5.08;79.00
61436;BME280;47304;47.456;19.160;2022-12-05T07:23:43;100962.17;;;5.09;78.85
61436;BME280;47304;47.456;19.160;2022-12-05T07:26:13;100966.45;;;5.12;78.89
61436;BME280;47304;47.456;19.160;2022-12-05T07:28:41;100967.57;;;5.15;78.76
61436;BME280;47304;47.456;19.160;2022-12-05T07:31:13;100970.60;;;5.18;78.82
61436;BME280;47304;47.456;19.160;2022-12-05T07:33:41;100971.34;;;5.19;78.68
61436;BME280;47304;47.456;19.160;2022-12-05T07:36:11;100974.52;;;5.21;78.78
61436;BME280;47304;47.456;19.160;2022-12-05T07:38:41;100979.45;;;5.23;78.58
61436;BME280;47304;47.456;19.160;2022-12-05T07:41:20;100989.44;;;5.26;78.42
61436;BME280;47304;47.456;19.160;2022-12-05T07:43:53;100989.66;;;5.27;78.37
61436;BME280;47304;47.456;19.160;2022-12-05T07:46:22;100992.19;;;5.25;78.62
61436;BME280;47304;47.456;19.160;2022-12-05T07:48:50;100994.27;;;5.24;78.55
61436;BME280;47304;47.456;19.160;2022-12-05T07:51:19;100992.85;;;5.24;78.39
61436;BME280;47304;47.456;19.160;2022-12-05T07:53:47;100995.60;;;5.23;78.20
61436;BME280;47304;47.456;19.160;2022-12-05T07:56:16;100995.80;;;5.23;78.27
61436;BME280;47304;47.456;19.160;2022-12-05T07:58:45;100997.84;;;5.22;78.18
61436;BME280;47304;47.456;19.160;2022-12-05T08:01:16;100998.27;;;5.25;78.23
61436;BME280;47304;47.456;19.160;2022-12-05T08:03:45;101003.07;;;5.28;78.23
61436;BME280;47304;47.456;19.160;2022-12-05T08:06:15;100999.22;;;5.33;78.26
61436;BME280;47304;47.456;19.160;2022-12-05T08:08:44;101006.30;;;5.37;78.07
61436;BME280;47304;47.456;19.160;2022-12-05T08:11:14;101009.42;;;5.42;77.94
61436;BME280;47304;47.456;19.160;2022-12-05T08:13:42;101006.08;;;5.47;77.85
61436;BME280;47304;47.456;19.160;2022-12-05T08:16:12;101004.27;;;5.51;77.90
61436;BME280;47304;47.456;19.160;2022-12-05T08:18:41;101008.71;;;5.54;77.56
61436;BME280;47304;47.456;19.160;2022-12-05T08:21:12;101007.39;;;5.56;77.42
61436;BME280;47304;47.456;19.160;2022-12-05T08:23:40;101009.30;;;5.56;77.33
61436;BME280;47304;47.456;19.160;2022-12-05T08:26:16;101013.80;;;5.55;77.28
61436;BME280;47304;47.456;19.160;2022-12-05T08:28:49;101011.00;;;5.55;77.15
61436;BME280;47304;47.456;19.160;2022-12-05T08:31:21;101010.52;;;5.56;77.21
61436;BME280;47304;47.456;19.160;2022-12-05T08:33:50;101015.11;;;5.59;77.16
61436;BME280;47304;47.456;19.160;2022-12-05T08:36:27;101013.99;;;5.61;77.04
61436;BME280;47304;47.456;19.160;2022-12-05T08:38:57;101014.00;;;5.62;76.89
61436;BME280;47304;47.456;19.160;2022-12-05T08:41:26;101014.96;;;5.65;76.84
61436;BME280;47304;47.456;19.160;2022-12-05T08:43:59;101013.29;;;5.68;76.82
61436;BME280;47304;47.456;19.160;2022-12-05T08:46:27;101012.29;;;5.69;76.76
61436;BME280;47304;47.456;19.160;2022-12-05T08:48:55;101006.32;;;5.73;76.61
61436;BME280;47304;47.456;19.160;2022-12-05T08:51:23;101006.74;;;5.75;76.64
61436;BME280;47304;47.456;19.160;2022-12-05T08:53:50;101003.84;;;5.77;76.55
61436;BME280;47304;47.456;19.160;2022-12-05T08:56:18;101002.86;;;5.79;76.48
61436;BME280;47304;47.456;19.160;2022-12-05T08:58:53;100998.58;;;5.82;76.34
61436;BME280;47304;47.456;19.160;2022-12-05T09:01:33;100999.55;;;5.85;76.39
61436;BME280;47304;47.456;19.160;2022-12-05T09:04:01;100998.98;;;5.90;76.20
61436;BME280;47304;47.456;19.160;2022-12-05T09:06:29;100997.54;;;5.94;76.20
61436;BME280;47304;47.456;19.160;2022-12-05T09:08:59;100997.42;;;6.01;76.11
61436;BME280;47304;47.456;19.160;2022-12-05T09:11:30;101001.27;;;6.08;75.90
61436;BME280;47304;47.456;19.160;2022-12-05T09:13:59;101001.25;;;6.13;75.71
61436;BME280;47304;47.456;19.160;2022-12-05T09:16:30;101000.50;;;6.18;75.57
61436;BME280;47304;47.456;19.160;2022-12-05T09:19:05;101003.26;;;6.23;75.40
61436;BME280;47304;47.456;19.160;2022-12-05T09:21:33;101004.61;;;6.28;75.04
61436;BME280;47304;47.456;19.160;2022-12-05T09:24:00;101000.20;;;6.32;75.12
61436;BME280;47304;47.456;19.160;2022-12-05T09:26:28;100996.08;;;6.35;74.63
61436;BME280;47304;47.456;19.160;2022-12-05T09:28:56;100994.52;;;6.35;74.80
61436;BME280;47304;47.456;19.160;2022-12-05T09:31:25;100994.02;;;6.36;74.55
61436;BME280;47304;47.456;19.160;2022-12-05T09:33:53;100995.16;;;6.39;74.48
61436;BME280;47304;47.456;19.160;2022-12-05T09:36:24;100991.59;;;6.43;74.30
61436;BME280;47304;47.456;19.160;2022-12-05T09:38:53;100993.67;;;6.49;74.53
61436;BME280;47304;47.456;19.160;2022-12-05T09:55:34;100975.30;;;6.80;73.46
61436;BME280;47304;47.456;19.160;2022-12-05T09:58:03;100977.65;;;6.84;73.51
61436;BME280;47304;47.456;19.160;2022-12-05T10:00:32;100978.50;;;6.90;73.34
61436;BME280;47304;47.456;19.160;2022-12-05T10:03:25;100973.53;;;6.93;72.90
61436;BME280;47304;47.456;19.160;2022-12-05T10:09:04;100965.97;;;6.97;72.42
61436;BME280;47304;47.456;19.160;2022-12-05T10:11:38;100970.38;;;6.93;72.20
61436;BME280;47304;47.456;19.160;2022-12-05T10:17:14;100968.74;;;6.83;72.38
61436;BME280;47304;47.456;19.160;2022-12-05T10:19:44;100966.00;;;6.84;72.60
61436;BME280;47304;47.456;19.160;2022-12-05T10:22:18;100962.98;;;6.89;72.78
61436;BME280;47304;47.456;19.160;2022-12-05T10:24:51;100957.84;;;6.93;72.60
61436;BME280;47304;47.456;19.160;2022-12-05T10:27:33;100945.16;;;7.02;72.53
61436;BME280;47304;47.456;19.160;2022-12-05T10:30:18;100940.75;;;7.15;72.10
61436;BME280;47304;47.456;19.160;2022-12-05T10:33:00;100932.70;;;7.37;72.18
61436;BME280;47304;47.456;19.160;2022-12-05T10:35:38;100938.70;;;7.57;71.81
61436;BME280;47304;47.456;19.160;2022-12-05T10:38:29;100933.51;;;7.84;71.66
61436;BME280;47304;47.456;19.160;2022-12-05T10:40:59;100922.39;;;8.45;70.91
61436;BME280;47304;47.456;19.160;2022-12-05T10:43:32;100918.11;;;8.92;69.34
61436;BME280;47304;47.456;19.160;2022-12-05T10:46:00;100919.54;;;9.05;68.05
61436;BME280;47304;47.456;19.160;2022-12-05T10:48:29;100915.81;;;9.15;67.68
61436;BME280;47304;47.456;19.160;2022-12-05T10:50:57;100914.06;;;9.15;67.30
61436;BME280;47304;47.456;19.160;2022-12-05T10:53:48;100907.31;;;9.33;67.16
61436;BME280;47304;47.456;19.160;2022-12-05T10:56:39;100888.29;;;9.79;66.28
61436;BME280;47304;47.456;19.160;2022-12-05T10:59:11;100894.73;;;9.94;65.70
61436;BME280;47304;47.456;19.160;2022-12-05T11:01:58;100902.04;;;9.89;64.91
61436;BME280;47304;47.456;19.160;2022-12-05T11:04:43;100900.14;;;9.76;64.80
61436;BME280;47304;47.456;19.160;2022-12-05T11:07:31;100905.00;;;9.58;64.98
61436;BME280;47304;47.456;19.160;2022-12-05T11:10:01;100903.52;;;9.36;65.11
61436;BME280;47304;47.456;19.160;2022-12-05T11:17:37;100890.95;;;8.87;65.69
61436;BME280;47304;47.456;19.160;2022-12-05T11:20:33;100890.10;;;8.66;66.26
61436;BME280;47304;47.456;19.160;2022-12-05T11:23:27;100889.52;;;8.42;66.53
61436;BME280;47304;47.456;19.160;2022-12-05T11:25:57;100888.84;;;8.23;67.15
61436;BME280;47304;47.456;19.160;2022-12-05T11:28:30;100888.95;;;8.10;67.67
61436;BME280;47304;47.456;19.160;2022-12-05T11:33:41;100898.56;;;7.90;68.50
61436;BME280;47304;47.456;19.160;2022-12-05T11:36:22;100897.31;;;7.80;68.81
61436;BME280;47304;47.456;19.160;2022-12-05T11:38:50;100888.83;;;7.74;68.96
61436;BME280;47304;47.456;19.160;2022-12-05T11:41:30;100885.90;;;7.67;68.97
61436;BME280;47304;47.456;19.160;2022-12-05T11:47:07;100889.50;;;7.56;69.56
61436;BME280;47304;47.456;19.160;2022-12-05T11:50:05;100888.58;;;7.53;69.88
61436;BME280;47304;47.456;19.160;2022-12-05T11:58:12;100875.05;;;7.47;70.06
61436;BME280;47304;47.456;19.160;2022-12-05T12:04:06;100869.03;;;7.43;70.46
61436;BME280;47304;47.456;19.160;2022-12-05T12:15:57;100862.67;;;7.39;70.55
61436;BME280;47304;47.456;19.160;2022-12-05T12:33:22;100846.51;;;7.41;71.05
61436;BME280;47304;47.456;19.160;2022-12-05T12:47:03;100819.02;;;7.53;71.18
61436;BME280;47304;47.456;19.160;2022-12-05T12:50:02;100827.15;;;7.50;71.16
61436;BME280;47304;47.456;19.160;2022-12-05T13:04:14;100830.69;;;7.35;71.87
61436;BME280;47304;47.456;19.160;2022-12-05T13:06:48;100833.30;;;7.34;72.06
61436;BME280;47304;47.456;19.160;2022-12-05T13:09:42;100828.21;;;7.33;72.23
61436;BME280;47304;47.456;19.160;2022-12-05T13:12:28;100823.33;;;7.32;72.37
61436;BME280;47304;47.456;19.160;2022-12-05T13:15:12;100820.90;;;7.33;72.44
61436;BME280;47304;47.456;19.160;2022-12-05T13:17:44;100814.98;;;7.34;72.52
61436;BME280;47304;47.456;19.160;2022-12-05T13:20:15;100814.67;;;7.36;72.44
61436;BME280;47304;47.456;19.160;2022-12-05T13:22:44;100817.64;;;7.36;72.41
61436;BME280;47304;47.456;19.160;2022-12-05T13:25:16;100815.84;;;7.33;72.24
61436;BME280;47304;47.456;19.160;2022-12-05T13:28:00;100818.61;;;7.32;72.45
61436;BME280;47304;47.456;19.160;2022-12-05T13:30:28;100821.95;;;7.33;72.50
61436;BME280;47304;47.456;19.160;2022-12-05T13:32:58;100815.86;;;7.34;72.67
61436;BME280;47304;47.456;19.160;2022-12-05T13:35:33;100808.88;;;7.33;72.65
61436;BME280;47304;47.456;19.160;2022-12-05T13:38:02;100807.06;;;7.29;72.56
61436;BME280;47304;47.456;19.160;2022-12-05T13:43:01;100805.30;;;7.20;73.14
61436;BME280;47304;47.456;19.160;2022-12-05T13:45:29;100803.79;;;7.14;73.42
61436;BME280;47304;47.456;19.160;2022-12-05T13:53:05;100810.00;;;7.11;73.60
61436;BME280;47304;47.456;19.160;2022-12-05T13:56:21;100812.09;;;7.12;73.78
61436;BME280;47304;47.456;19.160;2022-12-05T13:58:49;100819.11;;;7.14;73.61
61436;BME280;47304;47.456;19.160;2022-12-05T14:03:56;100816.92;;;7.18;73.58
61436;BME280;47304;47.456;19.160;2022-12-05T14:09:01;100814.71;;;7.20;73.50
61436;BME280;47304;47.456;19.160;2022-12-05T14:11:29;100820.67;;;7.22;73.45
61436;BME280;47304;47.456;19.160;2022-12-05T14:13:57;100825.04;;;7.23;73.52
61436;BME280;47304;47.456;19.160;2022-12-05T14:21:40;100822.02;;;7.28;73.46
61436;BME280;47304;47.456;19.160;2022-12-05T14:26:39;100813.33;;;7.29;73.55
61436;BME280;47304;47.456;19.160;2022-12-05T14:32:21;100811.58;;;7.29;73.50
61436;BME280;47304;47.456;19.160;2022-12-05T14:37:39;100810.53;;;7.29;73.60
61436;BME280;47304;47.456;19.160;2022-12-05T14:40:19;100817.86;;;7.29;73.56
61436;BME280;47304;47.456;19.160;2022-12-05T14:50:46;100815.17;;;7.26;73.80
61436;BME280;47304;47.456;19.160;2022-12-05T14:55:45;100805.59;;;7.26;73.89
61436;BME280;47304;47.456;19.160;2022-12-05T14:58:19;100802.83;;;7.26;73.87
61436;BME280;47304;47.456;19.160;2022-12-05T15:00:59;100806.83;;;7.26;73.86
61436;BME280;47304;47.456;19.160;2022-12-05T15:03:34;100808.85;;;7.24;73.85
61436;BME280;47304;47.456;19.160;2022-12-05T15:06:05;100802.23;;;7.24;73.92
61436;BME280;47304;47.456;19.160;2022-12-05T15:08:46;100798.20;;;7.23;74.01
61436;BME280;47304;47.456;19.160;2022-12-05T15:11:18;100797.33;;;7.22;74.07
61436;BME280;47304;47.456;19.160;2022-12-05T15:13:46;100793.66;;;7.22;74.08
61436;BME280;47304;47.456;19.160;2022-12-05T15:16:16;100793.30;;;7.21;74.20
61436;BME280;47304;47.456;19.160;2022-12-05T15:18:48;100793.48;;;7.22;74.19
61436;BME280;47304;47.456;19.160;2022-12-05T15:21:23;100800.09;;;7.21;74.24
61436;BME280;47304;47.456;19.160;2022-12-05T15:24:19;100803.58;;;7.21;74.31
61436;BME280;47304;47.456;19.160;2022-12-05T15:26:50;100804.08;;;7.20;74.38
61436;BME280;47304;47.456;19.160;2022-12-05T15:31:53;100792.39;;;7.20;74.49
61436;BME280;47304;47.456;19.160;2022-12-05T15:37:21;100797.77;;;7.17;74.48
61436;BME280;47304;47.456;19.160;2022-12-05T15:42:17;100797.53;;;7.15;74.46
61436;BME280;47304;47.456;19.160;2022-12-05T15:44:45;100792.64;;;7.15;74.62
61436;BME280;47304;47.456;19.160;2022-12-05T15:47:23;100783.09;;;7.16;74.72
61436;BME280;47304;47.456;19.160;2022-12-05T15:49:51;100775.44;;;7.16;74.76
61436;BME280;47304;47.456;19.160;2022-12-05T15:55:32;100767.27;;;7.17;74.65
61436;BME280;47304;47.456;19.160;2022-12-05T15:58:24;100760.39;;;7.14;74.74
61436;BME280;47304;47.456;19.160;2022-12-05T16:01:08;100756.51;;;7.11;74.77
61436;BME280;47304;47.456;19.160;2022-12-05T16:04:02;100751.74;;;7.08;74.85
61436;BME280;47304;47.456;19.160;2022-12-05T16:09:07;100752.85;;;7.02;75.09
61436;BME280;47304;47.456;19.160;2022-12-05T16:11:38;100755.60;;;7.01;75.09